createdAt,value
2019-01-23T00:00:48.381Z,27.33
2019-01-23T00:03:15.119Z,32.47
2019-01-23T00:08:34.622Z,36.33
2019-01-23T00:11:01.303Z,29.30
2019-01-23T00:13:27.983Z,32.57
2019-01-23T00:15:54.889Z,32.33
2019-01-23T00:18:23.390Z,34.03
2019-01-23T00:21:01.184Z,35.13
2019-01-23T00:23:28.090Z,33.97
2019-01-23T00:25:54.898Z,34.80
2019-01-23T00:28:42.987Z,35.67
2019-01-23T00:32:01.904Z,40.33
2019-01-23T00:34:24.683Z,43.23
2019-01-23T00:36:51.346Z,35.47
2019-01-23T00:39:38.270Z,37.40
2019-01-23T00:42:04.991Z,36.27
2019-01-23T00:44:31.681Z,37.10
2019-01-23T00:46:58.517Z,38.23
2019-01-23T00:49:25.370Z,35.10
2019-01-23T00:51:54.840Z,35.37
2019-01-23T00:54:23.427Z,36.00
2019-01-23T00:56:50.128Z,39.00
2019-01-23T00:59:16.869Z,37.17
2019-01-23T01:02:20.241Z,38.77
2019-01-23T01:04:37.556Z,36.90
2019-01-23T01:07:04.405Z,41.10
2019-01-23T01:09:34.261Z,35.07
2019-01-23T01:12:08.321Z,33.57
2019-01-23T01:14:36.085Z,33.70
2019-01-23T01:17:03.045Z,37.47
2019-01-23T01:19:29.866Z,36.80
2019-01-23T01:21:56.639Z,32.00
2019-01-23T01:24:23.341Z,28.93
2019-01-23T01:26:50.021Z,28.87
2019-01-23T01:29:16.788Z,28.27
2019-01-23T01:31:43.501Z,31.83
2019-01-23T01:34:10.236Z,28.13
2019-01-23T01:36:36.936Z,31.83
2019-01-23T01:39:06.865Z,33.03
2019-01-23T01:41:33.638Z,35.27
2019-01-23T01:44:00.342Z,35.10
2019-01-23T01:46:27.010Z,32.03
2019-01-23T01:48:53.704Z,30.57
2019-01-23T01:51:20.386Z,30.83
2019-01-23T01:53:47.167Z,28.93
2019-01-23T01:56:13.871Z,29.03
2019-01-23T01:58:41.479Z,31.37
2019-01-23T02:01:10.083Z,26.00
2019-01-23T02:03:36.784Z,25.40
2019-01-23T02:06:04.010Z,26.70
2019-01-23T02:08:30.780Z,30.10
2019-01-23T02:10:57.522Z,27.90
2019-01-23T02:13:24.184Z,25.07
2019-01-23T02:16:07.928Z,22.20
2019-01-23T02:18:33.835Z,18.80
2019-01-23T02:21:00.544Z,24.43
2019-01-23T02:23:27.222Z,24.90
2019-01-23T02:26:05.977Z,28.37
2019-01-23T02:28:35.627Z,31.63
2019-01-23T02:31:03.138Z,30.13
2019-01-23T02:33:31.700Z,29.13
2019-01-23T02:35:58.434Z,31.60
2019-01-23T02:38:25.078Z,28.63
2019-01-23T02:40:51.842Z,30.33
2019-01-23T02:43:18.591Z,31.17
2019-01-23T02:45:45.241Z,30.80
2019-01-23T02:48:11.937Z,31.83
2019-01-23T02:50:38.689Z,33.80
2019-01-23T02:53:16.051Z,32.87
2019-01-23T02:55:42.782Z,29.73
2019-01-23T02:58:09.607Z,29.83
2019-01-23T03:00:36.632Z,25.47
2019-01-23T03:03:03.714Z,24.00
2019-01-23T03:05:30.414Z,25.97
2019-01-23T03:07:57.374Z,22.03
2019-01-23T03:10:24.088Z,18.17
2019-01-23T03:12:50.844Z,20.30
2019-01-23T03:15:17.748Z,19.03
2019-01-23T03:17:44.435Z,19.60
2019-01-23T03:20:13.916Z,20.63
2019-01-23T03:22:42.518Z,19.83
2019-01-23T03:25:10.921Z,21.60
2019-01-23T03:27:37.655Z,21.93
2019-01-23T03:30:07.687Z,20.30
2019-01-23T03:32:54.187Z,17.37
2019-01-23T03:35:21.618Z,22.13
2019-01-23T03:37:48.499Z,20.20
2019-01-23T03:40:19.604Z,22.00
2019-01-23T03:42:46.407Z,20.93
2019-01-23T03:45:14.783Z,19.17
2019-01-23T03:47:43.257Z,17.73
2019-01-23T03:50:40.672Z,19.63
2019-01-23T03:53:07.924Z,19.60
2019-01-23T03:55:34.716Z,22.50
2019-01-23T03:58:40.277Z,21.70
2019-01-23T04:01:06.959Z,17.57
2019-01-23T04:03:36.415Z,15.23
2019-01-23T04:06:03.426Z,16.47
2019-01-23T04:08:36.297Z,17.73
2019-01-23T04:11:03.119Z,15.07
2019-01-23T04:13:29.879Z,16.13
2019-01-23T04:19:05.486Z,16.97
2019-01-23T04:21:32.195Z,20.90
2019-01-23T04:23:58.871Z,19.53
2019-01-23T04:26:25.649Z,15.83
2019-01-23T04:28:55.415Z,23.57
2019-01-23T04:31:22.103Z,16.87
2019-01-23T04:33:51.018Z,17.60
2019-01-23T04:36:28.625Z,21.27
2019-01-23T04:38:58.295Z,17.87
2019-01-23T04:41:24.980Z,15.20
2019-01-23T04:43:54.433Z,16.23
2019-01-23T04:46:21.091Z,20.00
2019-01-23T04:48:47.916Z,15.93
2019-01-23T04:51:40.210Z,19.33
2019-01-23T04:54:07.685Z,14.87
2019-01-23T04:56:34.444Z,18.63
2019-01-23T04:59:02.366Z,16.23
2019-01-23T05:01:31.982Z,17.83
2019-01-23T05:03:58.723Z,16.40
2019-01-23T05:06:25.515Z,20.50
2019-01-23T05:08:52.218Z,14.57
2019-01-23T05:11:18.939Z,16.30
2019-01-23T05:13:45.604Z,18.03
2019-01-23T05:16:12.298Z,18.37
2019-01-23T05:18:38.990Z,21.13
2019-01-23T05:21:05.737Z,14.33
2019-01-23T05:23:32.412Z,18.63
2019-01-23T05:25:59.126Z,17.07
2019-01-23T05:28:25.810Z,17.40
2019-01-23T05:30:52.467Z,17.00
2019-01-23T05:33:19.115Z,16.67
2019-01-23T05:35:49.675Z,18.33
2019-01-23T05:38:36.837Z,22.43
2019-01-23T05:40:53.161Z,21.40
2019-01-23T05:43:19.802Z,19.97
2019-01-23T05:45:46.514Z,21.17
2019-01-23T05:48:13.195Z,20.20
2019-01-23T05:50:47.777Z,22.77
2019-01-23T05:53:14.492Z,19.90
2019-01-23T05:55:41.207Z,17.87
2019-01-23T05:58:07.923Z,16.37
2019-01-23T06:00:43.922Z,21.67
2019-01-23T06:03:10.620Z,20.47
2019-01-23T06:05:40.135Z,23.17
2019-01-23T06:08:06.773Z,23.27
2019-01-23T06:10:33.723Z,26.70
2019-01-23T06:13:00.462Z,25.17
2019-01-23T06:15:27.165Z,23.53
2019-01-23T06:17:53.874Z,27.73
2019-01-23T06:20:20.618Z,27.00
2019-01-23T06:22:47.391Z,28.50
2019-01-23T06:25:14.177Z,26.23
2019-01-23T06:27:41.388Z,26.70
2019-01-23T06:30:11.735Z,26.03
2019-01-23T06:32:38.394Z,27.77
2019-01-23T06:35:05.412Z,25.63
2019-01-23T06:37:32.176Z,26.60
2019-01-23T06:39:58.870Z,22.83
2019-01-23T06:42:35.306Z,28.13
2019-01-23T06:45:02.211Z,25.30
2019-01-23T06:47:28.938Z,29.87
2019-01-23T06:49:55.656Z,31.60
2019-01-23T06:52:22.351Z,34.73
2019-01-23T06:54:57.151Z,32.33
2019-01-23T06:57:23.943Z,35.77
2019-01-23T06:59:50.760Z,37.23
2019-01-23T07:02:21.660Z,37.67
2019-01-23T07:04:51.871Z,41.43
2019-01-23T07:07:20.505Z,44.20
2019-01-23T07:09:47.177Z,37.07
2019-01-23T07:12:31.382Z,29.50
2019-01-23T07:14:58.023Z,38.57
2019-01-23T07:17:24.765Z,29.40
2019-01-23T07:19:51.466Z,34.37
2019-01-23T07:22:18.167Z,34.03
2019-01-23T07:24:44.990Z,31.20
2019-01-23T07:28:08.419Z,26.93
2019-01-23T07:29:58.770Z,26.63
2019-01-23T07:32:25.523Z,31.00
2019-01-23T07:34:52.221Z,24.90
2019-01-23T07:37:40.310Z,23.90
2019-01-23T07:40:08.602Z,23.47
2019-01-23T07:42:54.917Z,23.67
2019-01-23T07:45:34.508Z,29.70
2019-01-23T07:48:01.618Z,22.33
2019-01-23T07:51:07.602Z,26.13
2019-01-23T07:53:41.759Z,29.80
2019-01-23T07:56:09.017Z,30.53
2019-01-23T07:58:37.589Z,24.70
2019-01-23T08:01:05.438Z,23.00
2019-01-23T08:03:32.182Z,28.00
2019-01-23T08:06:01.377Z,30.30
2019-01-23T08:08:28.109Z,28.33
2019-01-23T08:11:14.246Z,29.57
2019-01-23T08:13:41.039Z,29.00
2019-01-23T08:16:07.932Z,24.40
2019-01-23T08:18:34.659Z,24.50
2019-01-23T08:21:07.872Z,24.77
2019-01-23T08:23:31.937Z,24.50
2019-01-23T08:26:00.541Z,28.20
2019-01-23T08:28:27.213Z,27.13
2019-01-23T08:30:53.916Z,25.70
2019-01-23T08:33:23.846Z,24.33
2019-01-23T08:35:50.574Z,22.97
2019-01-23T08:38:17.479Z,25.43
2019-01-23T08:41:03.715Z,20.40
2019-01-23T08:43:43.647Z,18.63
2019-01-23T08:46:11.206Z,17.87
2019-01-23T08:51:33.884Z,15.83
2019-01-23T08:54:00.858Z,13.90
2019-01-23T08:57:07.246Z,15.27
2019-01-23T09:05:19.798Z,15.73
2019-01-23T09:08:05.923Z,17.57
2019-01-23T09:10:34.442Z,15.30
2019-01-23T09:16:04.437Z,19.87
2019-01-23T09:18:56.373Z,13.73
2019-01-23T09:21:06.354Z,12.47
2019-01-23T09:23:44.828Z,17.97
2019-01-23T09:26:17.724Z,17.13
2019-01-23T09:29:00.174Z,16.23
2019-01-23T09:31:35.139Z,14.10
2019-01-23T09:37:40.993Z,14.10
2019-01-23T09:43:27.666Z,13.87
2019-01-23T09:46:38.310Z,16.77
2019-01-23T09:49:32.025Z,12.67
2019-01-23T09:52:08.213Z,15.97
2019-01-23T09:54:54.602Z,14.43
2019-01-23T09:57:21.448Z,14.63
2019-01-23T09:59:51.231Z,12.43
2019-01-23T10:02:18.203Z,13.30
2019-01-23T10:04:51.448Z,11.67
2019-01-23T10:07:18.122Z,9.10
2019-01-23T10:09:44.970Z,11.17
2019-01-23T10:12:11.968Z,10.63
2019-01-23T10:14:38.739Z,10.90
2019-01-23T10:17:05.742Z,9.33
2019-01-23T10:19:32.654Z,10.40
2019-01-23T10:21:59.436Z,10.47
2019-01-23T10:24:26.114Z,13.10
2019-01-23T10:26:54.972Z,12.13
2019-01-23T10:29:21.674Z,11.23
2019-01-23T10:31:48.665Z,12.37
2019-01-23T10:34:15.356Z,16.43
2019-01-23T10:36:42.221Z,11.37
2019-01-23T10:39:08.950Z,11.67
2019-01-23T10:41:35.610Z,12.30
2019-01-23T10:44:02.484Z,11.77
2019-01-23T10:46:29.145Z,10.80
2019-01-23T10:48:56.092Z,13.60
2019-01-23T10:51:22.802Z,11.27
2019-01-23T10:53:49.467Z,14.03
2019-01-23T10:56:16.193Z,16.30
2019-01-23T10:58:42.842Z,17.13
2019-01-23T11:01:13.391Z,14.03
2019-01-23T11:03:38.182Z,13.87
2019-01-23T11:06:26.370Z,14.60
2019-01-23T11:08:42.727Z,13.40
2019-01-23T11:11:11.593Z,17.17
2019-01-23T11:13:40.757Z,13.60
2019-01-23T11:16:07.405Z,14.73
2019-01-23T11:18:34.359Z,14.17
2019-01-23T11:21:01.047Z,14.47
2019-01-23T11:23:27.769Z,13.90
2019-01-23T11:25:55.164Z,10.57
2019-01-23T11:28:25.216Z,11.83
2019-01-23T11:30:51.968Z,12.30
2019-01-23T11:33:38.029Z,11.47
2019-01-23T11:36:04.695Z,10.97
2019-01-23T11:41:21.373Z,13.70
2019-01-23T11:44:00.356Z,12.20
2019-01-23T11:46:27.104Z,13.07
2019-01-23T11:49:18.289Z,11.57
2019-01-23T11:51:44.999Z,12.57
2019-01-23T11:54:19.055Z,11.30
2019-01-23T11:56:45.721Z,11.17
2019-01-23T11:59:21.939Z,12.40
2019-01-23T12:07:40.208Z,10.70
2019-01-23T12:10:18.993Z,12.23
2019-01-23T12:12:50.987Z,11.63
2019-01-23T12:15:20.413Z,11.00
2019-01-23T12:17:47.307Z,11.77
2019-01-23T12:20:14.662Z,11.83
2019-01-23T12:22:41.600Z,9.80
2019-01-23T12:25:09.906Z,9.63
2019-01-23T12:27:50.035Z,11.60
2019-01-23T12:30:29.267Z,11.17
2019-01-23T12:32:55.952Z,13.13
2019-01-23T12:35:22.782Z,13.53
2019-01-23T12:37:49.489Z,14.50
2019-01-23T12:40:18.947Z,14.30
2019-01-23T12:42:47.428Z,14.10
2019-01-23T12:45:34.221Z,13.47
2019-01-23T12:48:11.288Z,13.37
2019-01-23T12:51:01.408Z,12.63
2019-01-23T12:53:15.919Z,13.37
2019-01-23T12:55:51.524Z,14.30
2019-01-23T12:58:20.219Z,14.00
2019-01-23T13:00:57.339Z,16.07
2019-01-23T13:03:30.663Z,14.60
2019-01-23T13:08:54.999Z,12.23
2019-01-23T13:11:25.089Z,12.23
2019-01-23T13:13:51.738Z,13.70
2019-01-23T13:16:18.431Z,13.10
2019-01-23T13:18:54.962Z,11.73
2019-01-23T13:21:21.885Z,11.57
2019-01-23T13:23:53.157Z,11.93
2019-01-23T13:26:20.142Z,11.40
2019-01-23T13:28:46.902Z,13.70
2019-01-23T13:31:13.679Z,13.67
2019-01-23T13:33:40.428Z,12.40
2019-01-23T13:36:08.125Z,11.90
2019-01-23T13:38:39.745Z,13.90
2019-01-23T13:41:06.411Z,13.23
2019-01-23T13:43:33.163Z,12.47
2019-01-23T13:45:59.861Z,14.53
2019-01-23T13:48:26.641Z,13.20
2019-01-23T13:50:53.693Z,14.40
2019-01-23T13:53:20.526Z,16.13
2019-01-23T13:55:57.808Z,16.70
2019-01-23T13:58:41.999Z,20.67
2019-01-23T14:00:57.017Z,18.40
2019-01-23T14:03:27.705Z,19.40
2019-01-23T14:05:54.759Z,19.53
2019-01-23T14:11:14.418Z,17.33
2019-01-23T14:14:00.782Z,13.37
2019-01-23T14:16:33.981Z,15.90
2019-01-23T14:19:00.712Z,13.07
2019-01-23T14:21:27.341Z,14.10
2019-01-23T14:23:54.147Z,14.30
2019-01-23T14:26:20.912Z,12.20
2019-01-23T14:28:50.760Z,14.60
2019-01-23T14:31:17.683Z,17.10
2019-01-23T14:33:46.230Z,11.87
2019-01-23T14:36:13.169Z,16.20
2019-01-23T14:38:39.871Z,15.17
2019-01-23T14:41:06.567Z,15.03
2019-01-23T14:43:41.498Z,14.80
2019-01-23T14:46:08.160Z,19.27
2019-01-23T14:48:36.662Z,15.97
2019-01-23T14:51:03.591Z,14.27
2019-01-23T14:53:30.304Z,13.00
2019-01-23T14:55:58.760Z,15.23
2019-01-23T14:58:25.430Z,16.60
2019-01-23T15:00:53.708Z,17.10
2019-01-23T15:03:23.280Z,17.43
2019-01-23T15:06:09.822Z,17.80
2019-01-23T15:08:56.089Z,16.50
2019-01-23T15:11:23.595Z,18.27
2019-01-23T15:13:50.234Z,19.03
2019-01-23T15:16:16.968Z,16.77
2019-01-23T15:18:43.659Z,19.63
2019-01-23T15:21:10.707Z,15.97
2019-01-23T15:23:37.373Z,15.70
2019-01-23T15:26:04.179Z,16.00
2019-01-23T15:28:30.817Z,15.57
2019-01-23T15:30:57.522Z,13.63
2019-01-23T15:33:34.211Z,14.53
2019-01-23T15:36:00.966Z,16.90
2019-01-23T15:38:29.420Z,15.87
2019-01-23T15:40:56.205Z,17.17
2019-01-23T15:43:43.945Z,18.27
2019-01-23T15:48:59.021Z,19.67
2019-01-23T15:54:17.870Z,16.53
2019-01-23T15:56:44.684Z,14.67
2019-01-23T15:59:11.406Z,21.03
2019-01-23T16:01:48.641Z,17.73
2019-01-23T16:04:15.320Z,16.67
2019-01-23T16:06:42.327Z,13.87
2019-01-23T16:09:09.063Z,16.33
2019-01-23T16:11:35.793Z,14.60
2019-01-23T16:14:02.457Z,15.20
2019-01-23T16:16:40.065Z,14.60
2019-01-23T16:19:26.419Z,16.53
2019-01-23T16:22:02.322Z,14.47
2019-01-23T16:25:13.538Z,17.20
2019-01-23T16:27:18.267Z,15.43
2019-01-23T16:29:47.010Z,17.47
2019-01-23T16:32:33.313Z,16.50
2019-01-23T16:38:25.028Z,16.20
2019-01-23T16:40:51.731Z,15.63
2019-01-23T16:43:31.797Z,16.87
2019-01-23T16:45:58.689Z,16.67
2019-01-23T16:48:38.429Z,15.80
2019-01-23T16:51:10.898Z,15.37
2019-01-23T16:53:37.834Z,17.17
2019-01-23T16:56:04.676Z,16.53
2019-01-23T17:01:24.060Z,15.47
2019-01-23T17:03:51.143Z,18.57
2019-01-23T17:09:21.616Z,20.40
2019-01-23T17:11:50.260Z,17.63
2019-01-23T17:14:41.739Z,19.17
2019-01-23T17:16:51.094Z,17.73
2019-01-23T17:25:13.758Z,15.50
2019-01-23T17:27:44.792Z,18.73
2019-01-23T17:30:31.334Z,15.97
2019-01-23T17:36:38.983Z,15.83
2019-01-23T17:39:17.144Z,18.57
2019-01-23T17:41:59.737Z,18.00
2019-01-23T17:44:25.843Z,19.90
2019-01-23T17:47:21.412Z,15.33
2019-01-23T17:49:59.160Z,16.07
2019-01-23T17:52:44.679Z,19.07
2019-01-23T17:55:34.536Z,10.83
2019-01-23T17:58:06.821Z,14.70
2019-01-23T18:06:24.879Z,9.77
2019-01-23T18:09:07.720Z,9.63
2019-01-23T18:11:34.423Z,11.67
2019-01-23T18:14:01.128Z,10.83
2019-01-23T18:16:54.152Z,7.37
2019-01-23T18:19:16.713Z,8.37
2019-01-23T18:22:49.357Z,7.57
2019-01-23T18:24:46.761Z,7.03
2019-01-23T18:27:27.539Z,7.37
2019-01-23T18:30:10.947Z,8.87
2019-01-23T18:33:00.568Z,7.87
2019-01-23T18:36:00.819Z,8.33
2019-01-23T18:38:38.695Z,7.80
2019-01-23T18:41:38.307Z,8.77
2019-01-23T18:47:37.719Z,9.77
2019-01-23T18:53:42.168Z,9.27
2019-01-23T19:00:59.114Z,10.93
2019-01-23T19:02:49.074Z,10.20
2019-01-23T19:08:21.715Z,18.07
2019-01-23T19:14:13.817Z,21.07
2019-01-23T19:16:48.605Z,18.90
2019-01-23T19:19:17.452Z,17.57
2019-01-23T19:22:01.815Z,20.60
2019-01-23T19:31:30.076Z,17.47
2019-01-23T19:34:01.720Z,21.10
2019-01-23T19:43:09.577Z,16.20
2019-01-23T19:48:32.654Z,20.33
2019-01-23T19:51:05.736Z,25.03
2019-01-23T19:53:43.745Z,13.53
2019-01-23T19:59:39.982Z,15.80
2019-01-23T20:02:44.583Z,16.53
2019-01-23T20:05:34.534Z,15.67
2019-01-23T20:11:24.070Z,15.80
2019-01-23T20:17:01.171Z,18.30
2019-01-23T20:19:32.277Z,16.93
2019-01-23T20:22:05.205Z,17.47
2019-01-23T20:24:34.041Z,20.27
2019-01-23T20:27:10.580Z,17.83
2019-01-23T20:29:37.381Z,18.23
2019-01-23T20:35:21.019Z,17.13
2019-01-23T20:38:12.573Z,16.10
2019-01-23T20:46:39.630Z,13.47
2019-01-23T20:52:46.821Z,14.03
2019-01-23T20:58:36.810Z,16.33
2019-01-23T21:01:49.452Z,15.20
2019-01-23T21:10:06.503Z,19.97
2019-01-23T21:13:15.983Z,23.17
2019-01-23T21:16:51.439Z,17.67
2019-01-23T21:22:45.959Z,19.50
2019-01-23T21:29:27.123Z,21.33
2019-01-23T21:32:22.428Z,22.03
2019-01-23T21:35:00.213Z,26.10
2019-01-23T21:37:39.372Z,22.47
2019-01-23T21:40:27.211Z,23.00
2019-01-23T21:46:22.690Z,22.70
2019-01-23T21:55:34.243Z,22.80
2019-01-23T22:01:34.681Z,24.10
2019-01-23T22:04:13.783Z,23.73
2019-01-23T22:10:00.539Z,22.73
2019-01-23T22:12:46.895Z,23.23
2019-01-23T22:15:39.859Z,21.33
2019-01-23T22:21:48.815Z,21.00
2019-01-23T22:27:32.018Z,21.90
2019-01-23T22:29:58.683Z,21.30
2019-01-23T22:35:25.102Z,21.60
2019-01-23T22:37:53.846Z,21.37
2019-01-23T22:46:40.089Z,19.27
2019-01-23T22:49:07.096Z,24.63
2019-01-23T22:51:47.334Z,21.60
2019-01-23T22:57:41.269Z,21.33
2019-01-23T23:03:38.127Z,24.70
2019-01-23T23:06:10.484Z,23.50
2019-01-23T23:08:43.909Z,21.70
2019-01-23T23:17:46.674Z,19.47
2019-01-23T23:23:10.888Z,18.13
2019-01-23T23:26:14.470Z,21.27
2019-01-23T23:41:19.691Z,17.83
2019-01-23T23:44:10.462Z,18.50
2019-01-23T23:50:10.974Z,18.00
2019-01-23T23:52:50.179Z,18.80
2019-01-23T23:58:33.362Z,16.13
